Ada, South Dakota
Current Conditions -  °F | °C
As of 6:53 AM on Thursday 29 Jan 2015 (Local Time) from KHEI Reporting Station
Overcast Overcast  
Wind Chill: 16°   Ceiling: 1300
Heat Index: 26°   Visibility: 10mi
Dew Point: 22°   Wind: 10mph
Humidity: 84%   Direction: 300°WNW
Pressure: 30.42"   Gusts: NA
Location:  45.5161°N, 102.519°W
Report Text: KHEI 291353Z AUTO 30009KT 10SM OVC013 M03/M06 A3042 RMK AO2 SLP332 T10331056
Loading
Personal Weather Stations






























Interactive Weather Map New forecast layout! Learn more

10-Day Weather Forecast

Advertisements
Track Severe Weather on mobile